sensor_id;sensor_type;location;lat;lon;timestamp;temperature;humidity
52643;DHT22;38531;53.296;6.614;2023-08-30T06:20:02;13.00;99.90
52643;DHT22;38531;53.296;6.614;2023-08-30T06:33:44;13.50;99.90
52643;DHT22;38531;53.296;6.614;2023-08-30T06:36:10;13.80;99.90
52643;DHT22;38531;53.296;6.614;2023-08-30T06:46:41;14.00;99.90
52643;DHT22;38531;53.296;6.614;2023-08-30T06:49:09;14.00;99.90
52643;DHT22;38531;53.296;6.614;2023-08-30T06:51:37;14.10;99.90
52643;DHT22;38531;53.296;6.614;2023-08-30T06:58:19;14.10;99.90
52643;DHT22;38531;53.296;6.614;2023-08-30T07:00:48;14.00;99.90
52643;DHT22;38531;53.296;6.614;2023-08-30T07:03:22;14.00;99.90
52643;DHT22;38531;53.296;6.614;2023-08-30T07:05:51;14.10;99.90
52643;DHT22;38531;53.296;6.614;2023-08-30T07:08:36;14.10;99.90
52643;DHT22;38531;53.296;6.614;2023-08-30T07:11:05;14.20;99.90
52643;DHT22;38531;53.296;6.614;2023-08-30T07:13:41;14.20;99.90
52643;DHT22;38531;53.296;6.614;2023-08-30T07:16:32;14.30;99.90
52643;DHT22;38531;53.296;6.614;2023-08-30T07:19:01;14.40;99.90
52643;DHT22;38531;53.296;6.614;2023-08-30T07:21:27;14.50;99.90
52643;DHT22;38531;53.296;6.614;2023-08-30T07:23:56;14.50;99.90
52643;DHT22;38531;53.296;6.614;2023-08-30T07:26:24;14.50;99.90
52643;DHT22;38531;53.296;6.614;2023-08-30T07:28:50;14.60;99.90
52643;DHT22;38531;53.296;6.614;2023-08-30T07:31:15;14.60;99.90
52643;DHT22;38531;53.296;6.614;2023-08-30T07:33:44;14.70;99.90
52643;DHT22;38531;53.296;6.614;2023-08-30T07:36:10;14.80;99.90
52643;DHT22;38531;53.296;6.614;2023-08-30T07:38:37;14.90;99.90
52643;DHT22;38531;53.296;6.614;2023-08-30T07:41:03;14.90;99.90
52643;DHT22;38531;53.296;6.614;2023-08-30T07:43:29;15.10;99.90
52643;DHT22;38531;53.296;6.614;2023-08-30T07:45:55;15.10;99.90
52643;DHT22;38531;53.296;6.614;2023-08-30T07:48:22;15.20;99.90
52643;DHT22;38531;53.296;6.614;2023-08-30T07:50:50;15.20;99.90
52643;DHT22;38531;53.296;6.614;2023-08-30T07:53:16;15.30;99.90
52643;DHT22;38531;53.296;6.614;2023-08-30T07:55:42;15.50;99.90
52643;DHT22;38531;53.296;6.614;2023-08-30T07:58:10;15.60;99.90
52643;DHT22;38531;53.296;6.614;2023-08-30T08:00:38;15.90;99.90
52643;DHT22;38531;53.296;6.614;2023-08-30T08:03:05;16.00;99.90
52643;DHT22;38531;53.296;6.614;2023-08-30T08:05:31;16.00;99.90
52643;DHT22;38531;53.296;6.614;2023-08-30T08:08:00;16.00;99.90
52643;DHT22;38531;53.296;6.614;2023-08-30T08:10:26;16.10;99.90
52643;DHT22;38531;53.296;6.614;2023-08-30T08:12:52;16.20;99.90
52643;DHT22;38531;53.296;6.614;2023-08-30T08:15:23;16.20;99.90
52643;DHT22;38531;53.296;6.614;2023-08-30T08:17:49;16.30;99.90
52643;DHT22;38531;53.296;6.614;2023-08-30T08:20:17;16.30;99.90
52643;DHT22;38531;53.296;6.614;2023-08-30T08:22:43;16.40;99.90
52643;DHT22;38531;53.296;6.614;2023-08-30T08:25:09;16.50;99.90
52643;DHT22;38531;53.296;6.614;2023-08-30T08:27:37;16.60;99.90
52643;DHT22;38531;53.296;6.614;2023-08-30T08:30:04;16.70;99.90
52643;DHT22;38531;53.296;6.614;2023-08-30T08:32:30;16.70;99.90
52643;DHT22;38531;53.296;6.614;2023-08-30T08:34:57;16.70;99.90
52643;DHT22;38531;53.296;6.614;2023-08-30T08:37:23;16.80;99.90
52643;DHT22;38531;53.296;6.614;2023-08-30T08:39:49;16.70;99.90
52643;DHT22;38531;53.296;6.614;2023-08-30T08:42:21;16.70;99.90
52643;DHT22;38531;53.296;6.614;2023-08-30T08:44:50;16.80;99.90
52643;DHT22;38531;53.296;6.614;2023-08-30T08:47:17;16.90;99.90
52643;DHT22;38531;53.296;6.614;2023-08-30T08:49:50;16.90;99.90
52643;DHT22;38531;53.296;6.614;2023-08-30T08:52:16;17.00;99.90
52643;DHT22;38531;53.296;6.614;2023-08-30T08:54:45;17.20;99.90
52643;DHT22;38531;53.296;6.614;2023-08-30T08:57:13;17.20;99.90
52643;DHT22;38531;53.296;6.614;2023-08-30T08:59:42;17.30;99.90
52643;DHT22;38531;53.296;6.614;2023-08-30T09:02:12;17.30;99.90
52643;DHT22;38531;53.296;6.614;2023-08-30T09:04:40;17.40;99.90
52643;DHT22;38531;53.296;6.614;2023-08-30T09:07:08;17.60;99.90
52643;DHT22;38531;53.296;6.614;2023-08-30T09:09:37;17.50;99.90
52643;DHT22;38531;53.296;6.614;2023-08-30T09:12:12;17.50;99.90
52643;DHT22;38531;53.296;6.614;2023-08-30T09:14:41;17.40;99.90
52643;DHT22;38531;53.296;6.614;2023-08-30T09:17:09;17.40;99.90
52643;DHT22;38531;53.296;6.614;2023-08-30T09:19:35;17.30;99.90
52643;DHT22;38531;53.296;6.614;2023-08-30T09:22:03;17.30;99.90
52643;DHT22;38531;53.296;6.614;2023-08-30T09:24:39;17.20;99.90
52643;DHT22;38531;53.296;6.614;2023-08-30T09:27:07;17.20;99.90
52643;DHT22;38531;53.296;6.614;2023-08-30T09:29:36;17.20;99.90
52643;DHT22;38531;53.296;6.614;2023-08-30T09:32:09;17.10;99.90
52643;DHT22;38531;53.296;6.614;2023-08-30T09:34:34;17.10;99.90
52643;DHT22;38531;53.296;6.614;2023-08-30T09:37:00;17.20;99.90
52643;DHT22;38531;53.296;6.614;2023-08-30T09:39:30;17.00;99.90
52643;DHT22;38531;53.296;6.614;2023-08-30T09:41:56;17.00;99.90
52643;DHT22;38531;53.296;6.614;2023-08-30T09:44:28;17.00;99.90
52643;DHT22;38531;53.296;6.614;2023-08-30T09:46:59;17.00;99.90
52643;DHT22;38531;53.296;6.614;2023-08-30T09:49:26;17.10;99.90
52643;DHT22;38531;53.296;6.614;2023-08-30T09:51:55;17.10;99.90
52643;DHT22;38531;53.296;6.614;2023-08-30T09:54:24;17.10;99.90
52643;DHT22;38531;53.296;6.614;2023-08-30T09:56:50;17.20;99.90
52643;DHT22;38531;53.296;6.614;2023-08-30T09:59:51;17.30;99.90
52643;DHT22;38531;53.296;6.614;2023-08-30T10:02:45;17.50;99.90
52643;DHT22;38531;53.296;6.614;2023-08-30T10:05:26;17.50;99.90
52643;DHT22;38531;53.296;6.614;2023-08-30T10:07:55;17.50;99.90
52643;DHT22;38531;53.296;6.614;2023-08-30T10:10:23;17.50;99.90
52643;DHT22;38531;53.296;6.614;2023-08-30T10:13:07;17.60;99.90
52643;DHT22;38531;53.296;6.614;2023-08-30T10:15:40;17.60;99.90
52643;DHT22;38531;53.296;6.614;2023-08-30T10:18:31;17.60;99.90
52643;DHT22;38531;53.296;6.614;2023-08-30T10:20:59;17.80;99.90
52643;DHT22;38531;53.296;6.614;2023-08-30T10:23:26;17.90;99.90
52643;DHT22;38531;53.296;6.614;2023-08-30T10:25:54;18.10;99.90
52643;DHT22;38531;53.296;6.614;2023-08-30T10:28:21;18.30;99.90
52643;DHT22;38531;53.296;6.614;2023-08-30T10:30:53;18.30;99.90
52643;DHT22;38531;53.296;6.614;2023-08-30T10:33:20;18.30;99.90
52643;DHT22;38531;53.296;6.614;2023-08-30T10:35:51;18.30;99.90
52643;DHT22;38531;53.296;6.614;2023-08-30T10:38:31;18.40;99.90
52643;DHT22;38531;53.296;6.614;2023-08-30T10:41:06;18.50;99.90
52643;DHT22;38531;53.296;6.614;2023-08-30T10:43:40;18.40;99.90
52643;DHT22;38531;53.296;6.614;2023-08-30T10:46:06;18.40;99.90
52643;DHT22;38531;53.296;6.614;2023-08-30T10:48:41;18.30;99.90
52643;DHT22;38531;53.296;6.614;2023-08-30T10:55:14;18.50;99.90
52643;DHT22;38531;53.296;6.614;2023-08-30T10:58:01;18.50;99.90
52643;DHT22;38531;53.296;6.614;2023-08-30T11:07:56;18.40;99.90
52643;DHT22;38531;53.296;6.614;2023-08-30T11:18:19;18.60;99.90
52643;DHT22;38531;53.296;6.614;2023-08-30T11:20:45;18.70;99.90
52643;DHT22;38531;53.296;6.614;2023-08-30T11:23:11;18.80;99.90
52643;DHT22;38531;53.296;6.614;2023-08-30T11:25:37;18.80;99.90
52643;DHT22;38531;53.296;6.614;2023-08-30T11:28:03;18.80;99.90
52643;DHT22;38531;53.296;6.614;2023-08-30T11:30:29;18.90;99.90
52643;DHT22;38531;53.296;6.614;2023-08-30T11:32:57;18.80;99.90
52643;DHT22;38531;53.296;6.614;2023-08-30T11:35:40;18.90;99.90
52643;DHT22;38531;53.296;6.614;2023-08-30T11:38:06;18.90;99.90
52643;DHT22;38531;53.296;6.614;2023-08-30T11:40:32;18.90;99.90
52643;DHT22;38531;53.296;6.614;2023-08-30T11:42:58;18.90;99.90
52643;DHT22;38531;53.296;6.614;2023-08-30T11:45:24;18.90;99.90
52643;DHT22;38531;53.296;6.614;2023-08-30T11:47:50;19.00;99.90
52643;DHT22;38531;53.296;6.614;2023-08-30T11:50:16;18.90;99.90
52643;DHT22;38531;53.296;6.614;2023-08-30T11:52:41;19.00;99.90
52643;DHT22;38531;53.296;6.614;2023-08-30T11:55:07;18.90;99.90
52643;DHT22;38531;53.296;6.614;2023-08-30T11:57:33;18.90;99.90
52643;DHT22;38531;53.296;6.614;2023-08-30T12:00:14;18.80;99.90
52643;DHT22;38531;53.296;6.614;2023-08-30T12:02:40;18.80;99.90
52643;DHT22;38531;53.296;6.614;2023-08-30T12:05:10;18.70;99.90
52643;DHT22;38531;53.296;6.614;2023-08-30T12:07:37;18.60;99.90
52643;DHT22;38531;53.296;6.614;2023-08-30T12:10:07;18.50;99.90
52643;DHT22;38531;53.296;6.614;2023-08-30T12:12:33;18.50;99.90
52643;DHT22;38531;53.296;6.614;2023-08-30T12:15:09;18.40;99.90
52643;DHT22;38531;53.296;6.614;2023-08-30T12:17:37;18.40;99.90
52643;DHT22;38531;53.296;6.614;2023-08-30T12:20:13;18.40;99.90
52643;DHT22;38531;53.296;6.614;2023-08-30T12:22:39;18.40;99.90
52643;DHT22;38531;53.296;6.614;2023-08-30T12:25:19;18.40;99.90
52643;DHT22;38531;53.296;6.614;2023-08-30T12:27:45;18.50;99.90
52643;DHT22;38531;53.296;6.614;2023-08-30T12:30:11;18.50;99.90
52643;DHT22;38531;53.296;6.614;2023-08-30T12:32:59;18.40;99.90
52643;DHT22;38531;53.296;6.614;2023-08-30T12:35:28;18.40;99.90
52643;DHT22;38531;53.296;6.614;2023-08-30T12:38:08;18.30;99.90
52643;DHT22;38531;53.296;6.614;2023-08-30T12:40:56;18.20;99.90
52643;DHT22;38531;53.296;6.614;2023-08-30T12:43:24;18.10;99.90
52643;DHT22;38531;53.296;6.614;2023-08-30T12:45:50;18.00;99.90
52643;DHT22;38531;53.296;6.614;2023-08-30T12:48:19;17.90;99.90
52643;DHT22;38531;53.296;6.614;2023-08-30T12:50:46;17.80;99.90
52643;DHT22;38531;53.296;6.614;2023-08-30T12:53:13;17.70;99.90
52643;DHT22;38531;53.296;6.614;2023-08-30T12:55:38;17.60;99.90
52643;DHT22;38531;53.296;6.614;2023-08-30T12:58:08;17.50;99.90
52643;DHT22;38531;53.296;6.614;2023-08-30T13:00:34;17.40;99.90
52643;DHT22;38531;53.296;6.614;2023-08-30T13:03:02;17.30;99.90
52643;DHT22;38531;53.296;6.614;2023-08-30T13:05:29;17.20;99.90
52643;DHT22;38531;53.296;6.614;2023-08-30T13:07:56;17.20;99.90
52643;DHT22;38531;53.296;6.614;2023-08-30T13:10:21;17.20;99.90
52643;DHT22;38531;53.296;6.614;2023-08-30T13:12:49;17.00;99.90
52643;DHT22;38531;53.296;6.614;2023-08-30T13:15:15;17.00;99.90
52643;DHT22;38531;53.296;6.614;2023-08-30T13:17:41;16.80;99.90
52643;DHT22;38531;53.296;6.614;2023-08-30T13:20:07;16.80;99.90
52643;DHT22;38531;53.296;6.614;2023-08-30T13:22:33;16.80;99.90
52643;DHT22;38531;53.296;6.614;2023-08-30T13:24:59;16.80;99.90
52643;DHT22;38531;53.296;6.614;2023-08-30T13:27:24;16.70;99.90
52643;DHT22;38531;53.296;6.614;2023-08-30T13:29:50;16.70;99.90
52643;DHT22;38531;53.296;6.614;2023-08-30T13:32:16;16.60;99.90
52643;DHT22;38531;53.296;6.614;2023-08-30T13:34:42;16.50;99.90
52643;DHT22;38531;53.296;6.614;2023-08-30T13:37:12;16.50;99.90
52643;DHT22;38531;53.296;6.614;2023-08-30T13:39:39;16.50;99.90
52643;DHT22;38531;53.296;6.614;2023-08-30T13:42:05;16.40;99.90
52643;DHT22;38531;53.296;6.614;2023-08-30T13:44:31;16.30;99.90
52643;DHT22;38531;53.296;6.614;2023-08-30T13:47:08;16.20;99.90
52643;DHT22;38531;53.296;6.614;2023-08-30T13:49:35;16.30;99.90
52643;DHT22;38531;53.296;6.614;2023-08-30T13:52:04;16.20;99.90
52643;DHT22;38531;53.296;6.614;2023-08-30T13:54:29;16.20;99.90
52643;DHT22;38531;53.296;6.614;2023-08-30T13:56:59;16.10;99.90
52643;DHT22;38531;53.296;6.614;2023-08-30T13:59:25;16.20;99.90
52643;DHT22;38531;53.296;6.614;2023-08-30T14:01:50;16.10;99.90
52643;DHT22;38531;53.296;6.614;2023-08-30T14:04:16;16.10;99.90
52643;DHT22;38531;53.296;6.614;2023-08-30T14:06:42;16.00;99.90
52643;DHT22;38531;53.296;6.614;2023-08-30T14:09:08;15.90;99.90
52643;DHT22;38531;53.296;6.614;2023-08-30T14:11:37;15.90;99.90
52643;DHT22;38531;53.296;6.614;2023-08-30T14:14:03;16.00;99.90
52643;DHT22;38531;53.296;6.614;2023-08-30T14:16:29;16.00;99.90
52643;DHT22;38531;53.296;6.614;2023-08-30T14:18:55;16.00;99.90
52643;DHT22;38531;53.296;6.614;2023-08-30T14:21:21;16.00;99.90
52643;DHT22;38531;53.296;6.614;2023-08-30T14:23:46;16.00;99.90
52643;DHT22;38531;53.296;6.614;2023-08-30T14:26:12;16.00;99.90
52643;DHT22;38531;53.296;6.614;2023-08-30T14:28:50;16.10;99.90
52643;DHT22;38531;53.296;6.614;2023-08-30T14:31:15;16.20;99.90
52643;DHT22;38531;53.296;6.614;2023-08-30T14:33:45;16.30;99.90
52643;DHT22;38531;53.296;6.614;2023-08-30T14:36:11;16.30;99.90
52643;DHT22;38531;53.296;6.614;2023-08-30T14:38:36;16.30;99.90
52643;DHT22;38531;53.296;6.614;2023-08-30T14:41:03;16.40;99.90
52643;DHT22;38531;53.296;6.614;2023-08-30T14:43:29;16.50;99.90
52643;DHT22;38531;53.296;6.614;2023-08-30T14:46:02;16.60;99.90
52643;DHT22;38531;53.296;6.614;2023-08-30T14:48:28;16.80;99.90
52643;DHT22;38531;53.296;6.614;2023-08-30T14:50:54;16.80;99.90
52643;DHT22;38531;53.296;6.614;2023-08-30T14:53:20;16.90;99.90
52643;DHT22;38531;53.296;6.614;2023-08-30T14:55:46;17.10;99.90
52643;DHT22;38531;53.296;6.614;2023-08-30T14:58:12;17.10;99.90
52643;DHT22;38531;53.296;6.614;2023-08-30T15:00:38;17.10;99.90
52643;DHT22;38531;53.296;6.614;2023-08-30T15:03:04;17.10;99.90
52643;DHT22;38531;53.296;6.614;2023-08-30T15:05:30;17.10;99.90
52643;DHT22;38531;53.296;6.614;2023-08-30T15:07:55;17.10;99.90
52643;DHT22;38531;53.296;6.614;2023-08-30T15:10:21;17.20;99.90
52643;DHT22;38531;53.296;6.614;2023-08-30T15:12:47;17.40;99.90
52643;DHT22;38531;53.296;6.614;2023-08-30T15:15:14;17.60;99.90
52643;DHT22;38531;53.296;6.614;2023-08-30T15:17:40;17.70;99.90
52643;DHT22;38531;53.296;6.614;2023-08-30T15:20:07;17.70;99.90
52643;DHT22;38531;53.296;6.614;2023-08-30T15:22:34;17.60;99.90
52643;DHT22;38531;53.296;6.614;2023-08-30T15:25:00;17.60;99.90
52643;DHT22;38531;53.296;6.614;2023-08-30T15:31:16;17.50;99.90
52643;DHT22;38531;53.296;6.614;2023-08-30T15:33:58;17.40;99.90
52643;DHT22;38531;53.296;6.614;2023-08-30T15:37:02;17.40;99.90
52643;DHT22;38531;53.296;6.614;2023-08-30T15:39:57;17.40;99.90
52643;DHT22;38531;53.296;6.614;2023-08-30T15:42:38;17.40;99.90
52643;DHT22;38531;53.296;6.614;2023-08-30T15:45:10;17.50;99.90
52643;DHT22;38531;53.296;6.614;2023-08-30T15:47:36;17.60;99.90
52643;DHT22;38531;53.296;6.614;2023-08-30T15:50:02;17.60;99.90
52643;DHT22;38531;53.296;6.614;2023-08-30T15:52:28;17.70;99.90
52643;DHT22;38531;53.296;6.614;2023-08-30T15:54:57;17.80;99.90
52643;DHT22;38531;53.296;6.614;2023-08-30T15:57:25;17.80;99.90
52643;DHT22;38531;53.296;6.614;2023-08-30T15:59:51;17.80;99.90
52643;DHT22;38531;53.296;6.614;2023-08-30T16:02:19;17.80;99.90
52643;DHT22;38531;53.296;6.614;2023-08-30T16:04:47;17.70;99.90
52643;DHT22;38531;53.296;6.614;2023-08-30T16:07:13;17.50;99.90
52643;DHT22;38531;53.296;6.614;2023-08-30T16:09:39;17.40;99.90
52643;DHT22;38531;53.296;6.614;2023-08-30T16:12:05;17.30;99.90
52643;DHT22;38531;53.296;6.614;2023-08-30T16:14:38;17.20;99.90
52643;DHT22;38531;53.296;6.614;2023-08-30T16:17:04;17.00;99.90
52643;DHT22;38531;53.296;6.614;2023-08-30T16:19:30;17.00;99.90
52643;DHT22;38531;53.296;6.614;2023-08-30T16:21:56;16.90;99.90
52643;DHT22;38531;53.296;6.614;2023-08-30T16:24:22;16.80;99.90
52643;DHT22;38531;53.296;6.614;2023-08-30T16:26:53;16.70;99.90
52643;DHT22;38531;53.296;6.614;2023-08-30T16:29:23;16.70;99.90
52643;DHT22;38531;53.296;6.614;2023-08-30T16:31:49;16.60;99.90
52643;DHT22;38531;53.296;6.614;2023-08-30T16:34:18;16.60;99.90
52643;DHT22;38531;53.296;6.614;2023-08-30T16:36:48;16.50;99.90
52643;DHT22;38531;53.296;6.614;2023-08-30T16:39:16;16.50;99.90
52643;DHT22;38531;53.296;6.614;2023-08-30T16:41:42;16.40;99.90
52643;DHT22;38531;53.296;6.614;2023-08-30T16:44:08;16.40;99.90
52643;DHT22;38531;53.296;6.614;2023-08-30T16:46:34;16.40;99.90
52643;DHT22;38531;53.296;6.614;2023-08-30T16:49:02;16.40;99.90
52643;DHT22;38531;53.296;6.614;2023-08-30T16:51:29;16.40;99.90
52643;DHT22;38531;53.296;6.614;2023-08-30T16:53:55;16.40;99.90
52643;DHT22;38531;53.296;6.614;2023-08-30T16:56:20;16.50;99.90
52643;DHT22;38531;53.296;6.614;2023-08-30T16:58:46;16.50;99.90
52643;DHT22;38531;53.296;6.614;2023-08-30T17:01:12;16.50;99.90
52643;DHT22;38531;53.296;6.614;2023-08-30T17:03:37;16.60;99.90
52643;DHT22;38531;53.296;6.614;2023-08-30T17:06:03;16.70;99.90
52643;DHT22;38531;53.296;6.614;2023-08-30T17:08:30;16.70;99.90
52643;DHT22;38531;53.296;6.614;2023-08-30T17:11:06;16.80;99.90
52643;DHT22;38531;53.296;6.614;2023-08-30T17:13:33;16.80;99.90
52643;DHT22;38531;53.296;6.614;2023-08-30T17:16:02;16.80;99.90
52643;DHT22;38531;53.296;6.614;2023-08-30T17:18:29;16.80;99.90
52643;DHT22;38531;53.296;6.614;2023-08-30T17:20:57;16.80;99.90
52643;DHT22;38531;53.296;6.614;2023-08-30T17:23:23;16.90;99.90
52643;DHT22;38531;53.296;6.614;2023-08-30T17:25:50;16.90;99.90
52643;DHT22;38531;53.296;6.614;2023-08-30T17:28:16;16.80;99.90
52643;DHT22;38531;53.296;6.614;2023-08-30T17:30:42;16.80;99.90
52643;DHT22;38531;53.296;6.614;2023-08-30T17:33:08;16.80;99.90
52643;DHT22;38531;53.296;6.614;2023-08-30T17:35:35;16.80;99.90
52643;DHT22;38531;53.296;6.614;2023-08-30T17:38:01;16.70;99.90
52643;DHT22;38531;53.296;6.614;2023-08-30T17:40:33;16.70;99.90
52643;DHT22;38531;53.296;6.614;2023-08-30T17:43:00;16.80;99.90
52643;DHT22;38531;53.296;6.614;2023-08-30T17:45:30;16.80;99.90
52643;DHT22;38531;53.296;6.614;2023-08-30T17:47:57;16.70;99.90
52643;DHT22;38531;53.296;6.614;2023-08-30T17:50:24;16.60;99.90
52643;DHT22;38531;53.296;6.614;2023-08-30T17:52:50;16.50;99.90
52643;DHT22;38531;53.296;6.614;2023-08-30T17:55:16;16.50;99.90
52643;DHT22;38531;53.296;6.614;2023-08-30T17:57:42;16.40;99.90
52643;DHT22;38531;53.296;6.614;2023-08-30T18:00:08;16.30;99.90
52643;DHT22;38531;53.296;6.614;2023-08-30T18:02:49;16.30;99.90
52643;DHT22;38531;53.296;6.614;2023-08-30T18:05:15;16.20;99.90
52643;DHT22;38531;53.296;6.614;2023-08-30T18:07:42;16.10;99.90
52643;DHT22;38531;53.296;6.614;2023-08-30T18:10:10;16.10;99.90
52643;DHT22;38531;53.296;6.614;2023-08-30T18:12:36;16.00;99.90
52643;DHT22;38531;53.296;6.614;2023-08-30T18:15:02;15.90;99.90
52643;DHT22;38531;53.296;6.614;2023-08-30T18:17:29;15.90;99.90
52643;DHT22;38531;53.296;6.614;2023-08-30T18:19:57;15.80;99.90
52643;DHT22;38531;53.296;6.614;2023-08-30T18:22:25;15.70;99.90
52643;DHT22;38531;53.296;6.614;2023-08-30T18:24:51;15.60;99.90
52643;DHT22;38531;53.296;6.614;2023-08-30T18:27:17;15.60;99.90
52643;DHT22;38531;53.296;6.614;2023-08-30T18:29:43;15.50;99.90
52643;DHT22;38531;53.296;6.614;2023-08-30T18:32:11;15.40;99.90
52643;DHT22;38531;53.296;6.614;2023-08-30T18:34:41;15.40;99.90
52643;DHT22;38531;53.296;6.614;2023-08-30T18:37:08;15.40;99.90
52643;DHT22;38531;53.296;6.614;2023-08-30T18:39:34;15.30;99.90
52643;DHT22;38531;53.296;6.614;2023-08-30T18:42:03;15.30;99.90
52643;DHT22;38531;53.296;6.614;2023-08-30T18:44:29;15.20;99.90
52643;DHT22;38531;53.296;6.614;2023-08-30T18:47:03;15.20;99.90
52643;DHT22;38531;53.296;6.614;2023-08-30T18:49:31;15.10;99.90
52643;DHT22;38531;53.296;6.614;2023-08-30T18:52:05;15.00;99.90
52643;DHT22;38531;53.296;6.614;2023-08-30T18:54:33;15.00;99.90
52643;DHT22;38531;53.296;6.614;2023-08-30T18:56:59;14.90;99.90
52643;DHT22;38531;53.296;6.614;2023-08-30T18:59:28;14.80;99.90
52643;DHT22;38531;53.296;6.614;2023-08-30T19:01:53;14.80;99.90
52643;DHT22;38531;53.296;6.614;2023-08-30T19:04:19;14.70;99.90
52643;DHT22;38531;53.296;6.614;2023-08-30T19:06:54;14.60;99.90
52643;DHT22;38531;53.296;6.614;2023-08-30T19:09:23;14.50;99.90
52643;DHT22;38531;53.296;6.614;2023-08-30T19:11:49;14.50;99.90
52643;DHT22;38531;53.296;6.614;2023-08-30T19:14:15;14.40;99.90
52643;DHT22;38531;53.296;6.614;2023-08-30T19:16:41;14.30;99.90
52643;DHT22;38531;53.296;6.614;2023-08-30T19:19:06;14.30;99.90
52643;DHT22;38531;53.296;6.614;2023-08-30T19:22:06;14.20;99.90
52643;DHT22;38531;53.296;6.614;2023-08-30T19:24:38;14.10;99.90
52643;DHT22;38531;53.296;6.614;2023-08-30T19:27:07;14.10;99.90
52643;DHT22;38531;53.296;6.614;2023-08-30T19:29:35;14.10;99.90
52643;DHT22;38531;53.296;6.614;2023-08-30T19:32:07;14.00;99.90
52643;DHT22;38531;53.296;6.614;2023-08-30T19:34:35;14.00;99.90
52643;DHT22;38531;53.296;6.614;2023-08-30T19:37:01;13.90;99.90
52643;DHT22;38531;53.296;6.614;2023-08-30T19:39:37;13.90;99.90
52643;DHT22;38531;53.296;6.614;2023-08-30T19:42:36;13.80;99.90
52643;DHT22;38531;53.296;6.614;2023-08-30T19:45:14;13.80;99.90
52643;DHT22;38531;53.296;6.614;2023-08-30T19:47:42;13.80;99.90
52643;DHT22;38531;53.296;6.614;2023-08-30T19:50:08;13.60;99.90
52643;DHT22;38531;53.296;6.614;2023-08-30T19:52:34;13.60;99.90
52643;DHT22;38531;53.296;6.614;2023-08-30T19:55:03;13.60;99.90
52643;DHT22;38531;53.296;6.614;2023-08-30T19:57:32;13.60;99.90
52643;DHT22;38531;53.296;6.614;2023-08-30T20:00:08;13.50;99.90
52643;DHT22;38531;53.296;6.614;2023-08-30T20:02:48;13.50;99.90
52643;DHT22;38531;53.296;6.614;2023-08-30T20:05:22;13.50;99.90
52643;DHT22;38531;53.296;6.614;2023-08-30T20:07:50;13.40;99.90
52643;DHT22;38531;53.296;6.614;2023-08-30T20:10:16;13.40;99.90
52643;DHT22;38531;53.296;6.614;2023-08-30T20:12:41;13.40;99.90
52643;DHT22;38531;53.296;6.614;2023-08-30T20:15:08;13.40;99.90
52643;DHT22;38531;53.296;6.614;2023-08-30T20:17:34;13.40;99.90
52643;DHT22;38531;53.296;6.614;2023-08-30T20:20:05;13.30;99.90
52643;DHT22;38531;53.296;6.614;2023-08-30T20:22:51;13.30;99.90
52643;DHT22;38531;53.296;6.614;2023-08-30T20:25:39;13.20;99.90
52643;DHT22;38531;53.296;6.614;2023-08-30T20:28:07;13.20;99.90
52643;DHT22;38531;53.296;6.614;2023-08-30T20:30:33;13.20;99.90
52643;DHT22;38531;53.296;6.614;2023-08-30T20:33:10;13.20;99.90
52643;DHT22;38531;53.296;6.614;2023-08-30T20:35:36;13.20;99.90
52643;DHT22;38531;53.296;6.614;2023-08-30T20:38:02;13.20;99.90
52643;DHT22;38531;53.296;6.614;2023-08-30T20:40:28;13.20;99.90
52643;DHT22;38531;53.296;6.614;2023-08-30T20:43:10;13.20;99.90
52643;DHT22;38531;53.296;6.614;2023-08-30T20:45:39;13.10;99.90
52643;DHT22;38531;53.296;6.614;2023-08-30T20:48:08;13.20;99.90
52643;DHT22;38531;53.296;6.614;2023-08-30T20:50:36;13.10;99.90
52643;DHT22;38531;53.296;6.614;2023-08-30T20:53:06;13.10;99.90
52643;DHT22;38531;53.296;6.614;2023-08-30T20:55:42;13.10;99.90
52643;DHT22;38531;53.296;6.614;2023-08-30T20:58:09;13.10;99.90
52643;DHT22;38531;53.296;6.614;2023-08-30T21:00:40;13.10;99.90
52643;DHT22;38531;53.296;6.614;2023-08-30T21:03:11;13.10;99.90
52643;DHT22;38531;53.296;6.614;2023-08-30T21:05:39;13.10;99.90
52643;DHT22;38531;53.296;6.614;2023-08-30T21:11:21;13.00;99.90
52643;DHT22;38531;53.296;6.614;2023-08-30T21:13:49;12.90;99.90
52643;DHT22;38531;53.296;6.614;2023-08-30T21:16:17;12.90;99.90
52643;DHT22;38531;53.296;6.614;2023-08-30T21:18:46;12.90;99.90
52643;DHT22;38531;53.296;6.614;2023-08-30T21:21:15;12.80;99.90
52643;DHT22;38531;53.296;6.614;2023-08-30T21:23:41;12.80;99.90
52643;DHT22;38531;53.296;6.614;2023-08-30T21:26:10;12.80;99.90
52643;DHT22;38531;53.296;6.614;2023-08-30T21:28:38;12.70;99.90
52643;DHT22;38531;53.296;6.614;2023-08-30T21:31:24;12.70;99.90
52643;DHT22;38531;53.296;6.614;2023-08-30T21:33:55;12.60;99.90
52643;DHT22;38531;53.296;6.614;2023-08-30T21:36:24;12.60;99.90
52643;DHT22;38531;53.296;6.614;2023-08-30T21:38:50;12.80;99.90
52643;DHT22;38531;53.296;6.614;2023-08-30T21:41:16;12.60;99.90
52643;DHT22;38531;53.296;6.614;2023-08-30T21:43:43;12.50;99.90
52643;DHT22;38531;53.296;6.614;2023-08-30T21:46:09;12.50;99.90
52643;DHT22;38531;53.296;6.614;2023-08-30T21:48:35;12.40;99.90
52643;DHT22;38531;53.296;6.614;2023-08-30T21:51:01;12.40;99.90
52643;DHT22;38531;53.296;6.614;2023-08-30T21:53:37;12.40;99.90
52643;DHT22;38531;53.296;6.614;2023-08-30T21:56:03;12.30;99.90
52643;DHT22;38531;53.296;6.614;2023-08-30T21:58:31;12.30;99.90
52643;DHT22;38531;53.296;6.614;2023-08-30T22:00:57;12.30;99.90
52643;DHT22;38531;53.296;6.614;2023-08-30T22:03:23;12.50;99.90
52643;DHT22;38531;53.296;6.614;2023-08-30T22:05:49;12.20;99.90
52643;DHT22;38531;53.296;6.614;2023-08-30T22:08:15;12.20;99.90
52643;DHT22;38531;53.296;6.614;2023-08-30T22:10:41;12.10;99.90
52643;DHT22;38531;53.296;6.614;2023-08-30T22:13:07;12.10;99.90
52643;DHT22;38531;53.296;6.614;2023-08-30T22:15:33;12.10;99.90
52643;DHT22;38531;53.296;6.614;2023-08-30T22:18:02;12.10;99.90
52643;DHT22;38531;53.296;6.614;2023-08-30T22:20:27;12.10;99.90
52643;DHT22;38531;53.296;6.614;2023-08-30T22:22:53;12.00;99.90
52643;DHT22;38531;53.296;6.614;2023-08-30T22:25:19;12.00;99.90
52643;DHT22;38531;53.296;6.614;2023-08-30T22:27:47;12.00;99.90
52643;DHT22;38531;53.296;6.614;2023-08-30T22:30:14;12.10;99.90
52643;DHT22;38531;53.296;6.614;2023-08-30T22:32:51;11.90;99.90
52643;DHT22;38531;53.296;6.614;2023-08-30T22:35:20;11.90;99.90
52643;DHT22;38531;53.296;6.614;2023-08-30T22:37:46;11.90;99.90
52643;DHT22;38531;53.296;6.614;2023-08-30T22:40:12;11.90;99.90
52643;DHT22;38531;53.296;6.614;2023-08-30T22:42:39;12.30;99.90
52643;DHT22;38531;53.296;6.614;2023-08-30T22:45:05;11.90;99.90
52643;DHT22;38531;53.296;6.614;2023-08-30T22:47:34;11.90;99.90
52643;DHT22;38531;53.296;6.614;2023-08-30T22:50:00;12.60;99.90